Archival Weather

Aeroparque Jorge Newbery

Aeroparque Jorge Newbery, Argentina (SABE)

Report from: Saturday, May 14, 2022 5:00 PM -03
Current time: Sunday, June 26, 2022 2:48 PM -03

Current weather
Weather history
Weather forecast

Temperature17.0°C (62.6°F)
Dew point12.0°C (53.6°F)
Winds 4 kts (2.1 m/s, 4.6 mph) Vrb
Winds variableWinds variable from North (10°) to East (100°)
Clouds Sky clear
Altimeter30.06 in.Hg (1018 mB)
Relative humidity72 %
Density altitude272 ft. (83 m)
Remarks Ceiling and visibility OK
Corrected report
No significant changes expected in the next two hours
Flight conditions Visual Meteorological Conditions
Raw dataCOR SABE 142000Z 06004KT 100V010 CAVOK 17/12 Q1018 NOSIG
An error has occurred. This application may no longer respond until reloaded. Reload 🗙